Accueil
METAR-TAF:

METAR-TAF

Aéroports :

Selawik, Alaska, États-Unis

latitude: 66-37N, longitude: 160-00W, altitude: 8 m

Observation

Le bulletin a été fait il y a 45 minutes, à 21:56 UTC
Vent 10 kt de est/nord-est
Température -19°C
Humidité 84%
Pression 1008 hPa
Visibilité: 14.5 km
Nuages fragmentés à une hauteur de 1900 ft
Ciel couvert à une hauteur de 2600 ft
neige faible

METAR: PASK 222156Z AUTO 07010KT 9SM -SN BKN019 OVC026 M19/M21 A2977 RMK AO2 SLP078 P0000 T11891211 FZRANO

Heure: 13:41 (22:41 UTC)


TAF: absent

Observations et prévisions météorologiques de plus de 4000 aéroports (messages METAR et TAF).

Les stations disponibles sont représentées par des disques jaunes et rouges sur la carte.

Passer la souris dessus pour voir le nom de la station.

Cliquer dessus pour voir les observations et prévisions météorologiques.

Pour changer de carte: cliquez sur les boutons verts avec une croix noire pour zoomer, sur le bouton vert avec un tiret pour effectuer un zoom arrière, ou sur les flèches vertes pour les cartes adjacentes.


METAR-TAF: